Observation data for Spur on 08/13/2019      Previous  Date       Current Mesonet Observations  Soil Data  Daily Summary Page  Observations in Plain Language
KSP1 130500Z 15006G11KT 32/14 A2985 RMK A01 T03150139  RH  036%=      5-min Rain = 0
KSP1 130505Z 16007KT 32/14 A2985 RMK A01 T03160139  RH  036%=      5-min Rain = 0
KSP1 130510Z 16007G13KT 32/14 A2985 RMK A01 T03160138  RH  035%=      5-min Rain = 0
KSP1 130515Z 16008KT 32/14 A2985 RMK A01 T03170137  RH  035%=      5-min Rain = 0
KSP1 130520Z 16007KT 32/14 A2985 RMK A01 T03170137  RH  035%=      5-min Rain = 0
KSP1 130525Z 16007KT 32/14 A2985 RMK A01 T03160137  RH  035%=      5-min Rain = 0
KSP1 130530Z 15007KT 32/14 A2985 RMK A01 T03160137  RH  035%=      5-min Rain = 0
KSP1 130535Z 15007KT 32/14 A2985 RMK A01 T03150137  RH  035%=      5-min Rain = 0
KSP1 130540Z 15006KT 31/14 A2985 RMK A01 T03130137  RH  036%=      5-min Rain = 0
KSP1 130545Z 15006KT 31/14 A2986 RMK A01 T03120136  RH  036%=      5-min Rain = 0
KSP1 130550Z 15006KT 31/14 A2986 RMK A01 T03120136  RH  036%=      5-min Rain = 0
KSP1 130555Z 15006KT 31/14 A2986 RMK A01 T03110136  RH  036%=      5-min Rain = 0
KSP1 130600Z 15006KT 31/14 A2986 RMK A01 T03110136  RH  036%=      5-min Rain = 0
KSP1 130605Z 15005KT 31/14 A2986 RMK A01 T03110137  RH  036%=      5-min Rain = 0
KSP1 130610Z 15005KT 31/14 A2986 RMK A01 T03110137  RH  036%=      5-min Rain = 0
KSP1 130615Z 14005KT 31/14 A2986 RMK A01 T03110137  RH  036%=      5-min Rain = 0
KSP1 130620Z 14005KT 31/14 A2986 RMK A01 T03100137  RH  036%=      5-min Rain = 0
KSP1 130625Z 14003KT 31/14 A2987 RMK A01 T03100136  RH  036%=      5-min Rain = 0
KSP1 130630Z 11003KT 31/14 A2987 RMK A01 T03100136  RH  036%=      5-min Rain = 0
KSP1 130635Z 08002KT 31/14 A2987 RMK A01 T03110137  RH  036%=      5-min Rain = 0
KSP1 130640Z 05004KT 31/14 A2987 RMK A01 T03080138  RH  037%=      5-min Rain = 0
KSP1 130645Z 03006KT 31/14 A2988 RMK A01 T03070139  RH  038%=      5-min Rain = 0
KSP1 130650Z 03008KT 30/14 A2989 RMK A01 T02990142  RH  040%=      5-min Rain = 0
KSP1 130655Z 04009KT 30/14 A2989 RMK A01 T02980141  RH  040%=      5-min Rain = 0
KSP1 130700Z 04011KT 30/14 A2989 RMK A01 T03010139  RH  039%=      5-min Rain = 0
KSP1 130705Z 03013G18KT 30/14 A2989 RMK A01 T03010141  RH  039%=      5-min Rain = 0
KSP1 130710Z 04011KT 30/14 A2989 RMK A01 T02980144  RH  041%=      5-min Rain = 0
KSP1 130715Z 03011KT 30/14 A2989 RMK A01 T02960144  RH  041%=      5-min Rain = 0
KSP1 130720Z 02007KT 29/15 A2989 RMK A01 T02940147  RH  043%=      5-min Rain = 0
KSP1 130725Z 02013G19KT 29/17 A299 RMK A01 T02850166  RH  051%=      5-min Rain = 0
KSP1 130730Z 03011G16KT 27/18 A299 RMK A01 T02720175  RH  058%=      5-min Rain = 0
KSP1 130735Z 02012G17KT 27/18 A299 RMK A01 T02680176  RH  060%=      5-min Rain = 0
KSP1 130740Z 01013G21KT 26/18 A299 RMK A01 T02640178  RH  063%=      5-min Rain = 0
KSP1 130745Z 03015KT 26/18 A299 RMK A01 T02580181  RH  066%=      5-min Rain = 0
KSP1 130750Z 03013KT 26/18 A299 RMK A01 T02550181  RH  067%=      5-min Rain = 0
KSP1 130755Z 03012G18KT 25/18 A299 RMK A01 T02530181  RH  068%=      5-min Rain = 0
KSP1 130800Z 03013G19KT 25/18 A299 RMK A01 T02510182  RH  069%=      5-min Rain = 0
KSP1 130805Z 03014KT 25/18 A2991 RMK A01 T02490183  RH  070%=      5-min Rain = 0
KSP1 130810Z 03014KT 25/18 A2991 RMK A01 T02470184  RH  072%=      5-min Rain = 0
KSP1 130815Z 04013KT 25/18 A2991 RMK A01 T02460184  RH  072%=      5-min Rain = 0
KSP1 130820Z 04014KT 25/18 A2991 RMK A01 T02450184  RH  073%=      5-min Rain = 0
KSP1 130825Z 04012G18KT 24/19 A2991 RMK A01 T02440185  RH  073%=      5-min Rain = 0
KSP1 130830Z 04011KT 24/19 A2991 RMK A01 T02440185  RH  073%=      5-min Rain = 0
KSP1 130835Z 04014KT 24/19 A2992 RMK A01 T02430185  RH  074%=      5-min Rain = 0
KSP1 130840Z 03012KT 24/19 A2992 RMK A01 T02430185  RH  074%=      5-min Rain = 0
KSP1 130845Z 04012G17KT 24/19 A2992 RMK A01 T02420185  RH  075%=      5-min Rain = 0
KSP1 130850Z 04011KT 24/19 A2992 RMK A01 T02410186  RH  075%=      5-min Rain = 0
KSP1 130855Z 04013KT 24/19 A2992 RMK A01 T02400186  RH  076%=      5-min Rain = 0
KSP1 130900Z 04013KT 24/19 A2992 RMK A01 T02400186  RH  076%=      5-min Rain = 0
KSP1 130905Z 04014KT 24/19 A2991 RMK A01 T02390186  RH  076%=      5-min Rain = 0
KSP1 130910Z 04013KT 24/19 A2991 RMK A01 T02380186  RH  077%=      5-min Rain = 0
KSP1 130915Z 04012G17KT 24/19 A2992 RMK A01 T02380187  RH  077%=      5-min Rain = 0
KSP1 130920Z 04013G22KT 24/19 A2991 RMK A01 T02380186  RH  077%=      5-min Rain = 0
KSP1 130925Z 05016G21KT 24/19 A2991 RMK A01 T02380186  RH  077%=      5-min Rain = 0
KSP1 130930Z 05015KT 24/19 A2991 RMK A01 T02380187  RH  077%=      5-min Rain = 0
KSP1 130935Z 05014KT 24/19 A2991 RMK A01 T02370187  RH  077%=      5-min Rain = 0
KSP1 130940Z 05013G18KT 24/19 A2992 RMK A01 T02360186  RH  078%=      5-min Rain = 0
KSP1 130945Z 05011KT 24/19 A2992 RMK A01 T02350186  RH  078%=      5-min Rain = 0
KSP1 130950Z 04010KT 24/19 A2992 RMK A01 T02350187  RH  078%=      5-min Rain = 0
KSP1 130955Z 05011G17KT 23/19 A2992 RMK A01 T02340187  RH  079%=      5-min Rain = 0
KSP1 131000Z 05011KT 23/19 A2993 RMK A01 T02340187  RH  079%=      5-min Rain = 0
KSP1 131005Z 05012G18KT 23/19 A2993 RMK A01 T02330187  RH  080%=      5-min Rain = 0
KSP1 131010Z 05009KT 23/19 A2993 RMK A01 T02320187  RH  080%=      5-min Rain = 0
KSP1 131015Z 05012KT 23/19 A2993 RMK A01 T02310187  RH  081%=      5-min Rain = 0
KSP1 131020Z 05011KT 23/19 A2993 RMK A01 T02300187  RH  081%=      5-min Rain = 0
KSP1 131025Z 04010KT 23/19 A2993 RMK A01 T02300187  RH  081%=      5-min Rain = 0
KSP1 131030Z 04009KT 23/19 A2993 RMK A01 T02290187  RH  082%=      5-min Rain = 0
KSP1 131035Z 04010KT 23/19 A2993 RMK A01 T02280186  RH  082%=      5-min Rain = 0
KSP1 131040Z 05009G16KT 23/19 A2994 RMK A01 T02270186  RH  082%=      5-min Rain = 0
KSP1 131045Z 04010G15KT 23/19 A2994 RMK A01 T02270186  RH  082%=      5-min Rain = 0
KSP1 131050Z 04010KT 23/19 A2994 RMK A01 T02260186  RH  082%=      5-min Rain = 0
KSP1 131055Z 04011KT 23/19 A2994 RMK A01 T02260186  RH  082%=      5-min Rain = 0
KSP1 131100Z 04011KT 23/19 A2994 RMK A01 T02250185  RH  082%=      5-min Rain = 0
KSP1 131105Z 03010KT 23/19 A2995 RMK A01 T02250185  RH  083%=      5-min Rain = 0
KSP1 131110Z 03007KT 22/19 A2995 RMK A01 T02240185  RH  083%=      5-min Rain = 0
KSP1 131115Z 04009G15KT 22/19 A2995 RMK A01 T02240186  RH  083%=      5-min Rain = 0
KSP1 131120Z 03008KT 22/19 A2995 RMK A01 T02230186  RH  084%=      5-min Rain = 0
KSP1 131125Z 02007KT 22/19 A2996 RMK A01 T02230185  RH  084%=      5-min Rain = 0
KSP1 131130Z 03006KT 22/19 A2995 RMK A01 T02220185  RH  084%=      5-min Rain = 0
KSP1 131135Z 03007G12KT 22/19 A2995 RMK A01 T02220185  RH  084%=      5-min Rain = 0
KSP1 131140Z 04008G13KT 22/19 A2996 RMK A01 T02220185  RH  084%=      5-min Rain = 0
KSP1 131145Z 04008KT 22/19 A2996 RMK A01 T02210185  RH  084%=      5-min Rain = 0
KSP1 131150Z 05008KT 22/19 A2995 RMK A01 T02210185  RH  085%=      5-min Rain = 0
KSP1 131155Z 05008KT 22/19 A2996 RMK A01 T02200186  RH  085%=      5-min Rain = 0
KSP1 131200Z 05008KT 22/19 A2996 RMK A01 T02200186  RH  086%=      5-min Rain = 0
KSP1 131205Z 05010KT 22/19 A2996 RMK A01 T02190186  RH  086%=      5-min Rain = 0
KSP1 131210Z 05009KT 22/19 A2996 RMK A01 T02200187  RH  086%=      5-min Rain = 0
KSP1 131215Z 06008KT 22/19 A2996 RMK A01 T02200187  RH  086%=      5-min Rain = 0
KSP1 131220Z 06009G14KT 22/19 A2996 RMK A01 T02210187  RH  086%=      5-min Rain = 0
KSP1 131225Z 07009KT 22/19 A2996 RMK A01 T02220187  RH  085%=      5-min Rain = 0
KSP1 131230Z 07009G14KT 22/19 A2996 RMK A01 T02230187  RH  085%=      5-min Rain = 0
KSP1 131235Z 07009KT 22/19 A2996 RMK A01 T02240188  RH  085%=      5-min Rain = 0
KSP1 131240Z 07010G15KT 22/19 A2997 RMK A01 T02240188  RH  084%=      5-min Rain = 0
KSP1 131245Z 07009G16KT 23/19 A2997 RMK A01 T02250188  RH  084%=      5-min Rain = 0
KSP1 131250Z 07010KT 23/19 A2997 RMK A01 T02260188  RH  084%=      5-min Rain = 0
KSP1 131255Z 07009G18KT 23/19 A2997 RMK A01 T02280188  RH  083%=      5-min Rain = 0
KSP1 131300Z 08011G16KT 23/19 A2997 RMK A01 T02280188  RH  083%=      5-min Rain = 0
KSP1 131305Z 08008KT 23/19 A2997 RMK A01 T02300189  RH  082%=      5-min Rain = 0
KSP1 131310Z 09008G13KT 23/19 A2997 RMK A01 T02320189  RH  081%=      5-min Rain = 0
KSP1 131315Z 08008G14KT 23/19 A2997 RMK A01 T02340189  RH  080%=      5-min Rain = 0
KSP1 131320Z 08008G13KT 24/19 A2998 RMK A01 T02350189  RH  079%=      5-min Rain = 0
KSP1 131325Z 08009G15KT 24/19 A2998 RMK A01 T02360189  RH  079%=      5-min Rain = 0
KSP1 131330Z 08009G14KT 24/19 A2998 RMK A01 T02390189  RH  078%=      5-min Rain = 0
KSP1 131335Z 07009G14KT 24/19 A2998 RMK A01 T02400189  RH  077%=      5-min Rain = 0
KSP1 131340Z 06010G16KT 24/19 A2999 RMK A01 T02420188  RH  076%=      5-min Rain = 0
KSP1 131345Z 07011G17KT 25/19 A2999 RMK A01 T02450189  RH  075%=      5-min Rain = 0
KSP1 131350Z 07011G16KT 25/19 A2999 RMK A01 T02470188  RH  074%=      5-min Rain = 0
KSP1 131355Z 07010G15KT 25/19 A2999 RMK A01 T02490188  RH  073%=      5-min Rain = 0
KSP1 131400Z 07012KT 25/19 A30 RMK A01 T02500188  RH  072%=      5-min Rain = 0
KSP1 131405Z 08011G17KT 25/19 A30 RMK A01 T02520188  RH  071%=      5-min Rain = 0
KSP1 131410Z 07009G15KT 26/19 A30 RMK A01 T02560189  RH  070%=      5-min Rain = 0
KSP1 131415Z 07012G17KT 26/19 A30 RMK A01 T02570188  RH  069%=      5-min Rain = 0
KSP1 131420Z 08012G18KT 26/19 A30 RMK A01 T02570187  RH  069%=      5-min Rain = 0
KSP1 131425Z 07014G20KT 26/19 A30 RMK A01 T02590187  RH  068%=      5-min Rain = 0
KSP1 131430Z 07010G16KT 26/19 A30 RMK A01 T02630187  RH  067%=      5-min Rain = 0
KSP1 131435Z 07010G17KT 27/19 A30 RMK A01 T02690187  RH  064%=      5-min Rain = 0
KSP1 131440Z 08011G17KT 27/19 A30 RMK A01 T02690186  RH  064%=      5-min Rain = 0
KSP1 131445Z 07012G18KT 27/18 A30 RMK A01 T02700184  RH  063%=      5-min Rain = 0
KSP1 131450Z 07012G20KT 27/19 A30 RMK A01 T02730185  RH  062%=      5-min Rain = 0
KSP1 131455Z 08012G18KT 27/18 A30 RMK A01 T02720183  RH  061%=      5-min Rain = 0
KSP1 131500Z 07010G15KT 28/18 A30 RMK A01 T02760184  RH  060%=      5-min Rain = 0
KSP1 131505Z 06011G17KT 28/19 A30 RMK A01 T02790185  RH  060%=      5-min Rain = 0
KSP1 131510Z 08010G15KT 28/18 A3001 RMK A01 T02800184  RH  059%=      5-min Rain = 0
KSP1 131515Z 06012KT 28/19 A3001 RMK A01 T02820185  RH  058%=      5-min Rain = 0
KSP1 131520Z 07011KT 28/18 A3001 RMK A01 T02820183  RH  058%=      5-min Rain = 0
KSP1 131525Z 07012G17KT 29/18 A3001 RMK A01 T02850182  RH  057%=      5-min Rain = 0
KSP1 131530Z 06011G16KT 29/18 A3001 RMK A01 T02850182  RH  057%=      5-min Rain = 0
KSP1 131535Z 07010G15KT 29/18 A3001 RMK A01 T02890182  RH  055%=      5-min Rain = 0
KSP1 131540Z 07010KT 29/18 A3001 RMK A01 T02920182  RH  054%=      5-min Rain = 0
KSP1 131545Z 07012G19KT 29/18 A3001 RMK A01 T02920181  RH  054%=      5-min Rain = 0
KSP1 131550Z 08009G14KT 29/18 A3001 RMK A01 T02930181  RH  054%=      5-min Rain = 0
KSP1 131555Z 08010G15KT 30/18 A3001 RMK A01 T02950180  RH  053%=      5-min Rain = 0
KSP1 131600Z 07011G17KT 30/18 A3002 RMK A01 T02960180  RH  053%=      5-min Rain = 0
KSP1 131605Z 08010KT 30/18 A3002 RMK A01 T02970180  RH  052%=      5-min Rain = 0
KSP1 131610Z 09011KT 30/18 A3002 RMK A01 T03000179  RH  051%=      5-min Rain = 0
KSP1 131615Z 07011KT 30/18 A3002 RMK A01 T02980179  RH  051%=      5-min Rain = 0
KSP1 131620Z 06011KT 30/18 A3002 RMK A01 T03030181  RH  051%=      5-min Rain = 0
KSP1 131625Z 08009G14KT 31/18 A3002 RMK A01 T03080180  RH  049%=      5-min Rain = 0
KSP1 131630Z 07010G17KT 31/18 A3002 RMK A01 T03100179  RH  048%=      5-min Rain = 0
KSP1 131635Z 07010G16KT 31/18 A3002 RMK A01 T03060177  RH  049%=      5-min Rain = 0
KSP1 131640Z 07009KT 31/18 A3002 RMK A01 T03110178  RH  048%=      5-min Rain = 0
KSP1 131645Z 09009KT 31/18 A3002 RMK A01 T03120178  RH  047%=      5-min Rain = 0
KSP1 131650Z 06011KT 31/18 A3002 RMK A01 T03130179  RH  047%=      5-min Rain = 0
KSP1 131655Z 07010KT 31/18 A3002 RMK A01 T03120180  RH  048%=      5-min Rain = 0
KSP1 131700Z 05009G14KT 32/18 A3002 RMK A01 T03180180  RH  046%=      5-min Rain = 0
KSP1 131705Z 07009G15KT 32/18 A3002 RMK A01 T03180178  RH  045%=      5-min Rain = 0
KSP1 131710Z 06010G17KT 32/18 A3002 RMK A01 T03160178  RH  046%=      5-min Rain = 0
KSP1 131715Z 05012G17KT 32/18 A3002 RMK A01 T03180177  RH  045%=      5-min Rain = 0
KSP1 131720Z 04012G17KT 32/18 A3002 RMK A01 T03210176  RH  044%=      5-min Rain = 0
KSP1 131725Z 06011KT 32/18 A3002 RMK A01 T03230175  RH  043%=      5-min Rain = 0
KSP1 131730Z 05011G20KT 32/17 A3002 RMK A01 T03190174  RH  044%=      5-min Rain = 0
KSP1 131735Z 06009G15KT 32/18 A3002 RMK A01 T03200175  RH  044%=      5-min Rain = 0
KSP1 131740Z 06012G17KT 32/17 A3002 RMK A01 T03210174  RH  044%=      5-min Rain = 0
KSP1 131745Z 06010KT 32/17 A3002 RMK A01 T03220174  RH  043%=      5-min Rain = 0
KSP1 131750Z 08009G15KT 32/17 A3002 RMK A01 T03240173  RH  043%=      5-min Rain = 0
KSP1 131755Z 08009G14KT 32/17 A3002 RMK A01 T03230172  RH  043%=      5-min Rain = 0
KSP1 131800Z 06009G14KT 33/17 A3002 RMK A01 T03280173  RH  042%=      5-min Rain = 0
KSP1 131805Z 06009G14KT 33/18 A3001 RMK A01 T03290175  RH  042%=      5-min Rain = 0
KSP1 131810Z 08011KT 33/17 A3001 RMK A01 T03300174  RH  042%=      5-min Rain = 0
KSP1 131815Z 08006G12KT 33/18 A3001 RMK A01 T03340175  RH  041%=      5-min Rain = 0
KSP1 131820Z 06009G17KT 34/18 A3001 RMK A01 T03370177  RH  041%=      5-min Rain = 0
KSP1 131825Z 06012G17KT 34/17 A3001 RMK A01 T03370173  RH  040%=      5-min Rain = 0
KSP1 131830Z 06010G15KT 34/18 A3001 RMK A01 T03350175  RH  041%=      5-min Rain = 0
KSP1 131835Z 05012KT 34/17 A3001 RMK A01 T03400173  RH  039%=      5-min Rain = 0
KSP1 131840Z 05011G17KT 34/17 A3001 RMK A01 T03380172  RH  039%=      5-min Rain = 0
KSP1 131845Z 07010KT 34/17 A3001 RMK A01 T03370171  RH  039%=      5-min Rain = 0
KSP1 131850Z 07009G15KT 34/17 A3001 RMK A01 T03370173  RH  040%=      5-min Rain = 0
KSP1 131855Z 05011G16KT 34/17 A3001 RMK A01 T03390174  RH  039%=      5-min Rain = 0
KSP1 131900Z 06012G18KT 34/17 A3001 RMK A01 T03390174  RH  040%=      5-min Rain = 0
KSP1 131905Z 05014G19KT 34/17 A3001 RMK A01 T03400174  RH  039%=      5-min Rain = 0
KSP1 131910Z 07008G13KT 35/17 A3001 RMK A01 T03450174  RH  038%=      5-min Rain = 0
KSP1 131915Z 04012G17KT 34/17 A30 RMK A01 T03420174  RH  039%=      5-min Rain = 0
KSP1 131920Z 06012G17KT 35/17 A30 RMK A01 T03460174  RH  038%=      5-min Rain = 0
KSP1 131925Z 08009G14KT 35/17 A30 RMK A01 T03460174  RH  038%=      5-min Rain = 0
KSP1 131930Z 06011G18KT 35/18 A30 RMK A01 T03480175  RH  038%=      5-min Rain = 0
KSP1 131935Z 06011G17KT 34/17 A30 RMK A01 T03420174  RH  039%=      5-min Rain = 0
KSP1 131940Z 08010KT 34/18 A30 RMK A01 T03430175  RH  039%=      5-min Rain = 0
KSP1 131945Z 04012G20KT 35/18 A30 RMK A01 T03510176  RH  038%=      5-min Rain = 0
KSP1 131950Z 04011G17KT 35/18 A30 RMK A01 T03530175  RH  037%=      5-min Rain = 0
KSP1 131955Z 08011KT 34/17 A30 RMK A01 T03440172  RH  038%=      5-min Rain = 0
KSP1 132000Z 08012G18KT 35/17 A30 RMK A01 T03510172  RH  036%=      5-min Rain = 0
KSP1 132005Z 07011KT 35/17 A2999 RMK A01 T03500173  RH  037%=      5-min Rain = 0
KSP1 132010Z 07011G16KT 35/17 A2999 RMK A01 T03530173  RH  036%=      5-min Rain = 0
KSP1 132015Z 06013G19KT 35/17 A2999 RMK A01 T03540173  RH  036%=      5-min Rain = 0
KSP1 132020Z 06011KT 35/17 A2999 RMK A01 T03500173  RH  037%=      5-min Rain = 0
KSP1 132025Z 08009G14KT 35/17 A2999 RMK A01 T03510171  RH  036%=      5-min Rain = 0
KSP1 132030Z 06013G18KT 35/17 A2999 RMK A01 T03530172  RH  036%=      5-min Rain = 0
KSP1 132035Z 06009G14KT 35/17 A2999 RMK A01 T03480169  RH  036%=      5-min Rain = 0
KSP1 132040Z 06010G18KT 36/17 A2999 RMK A01 T03580172  RH  035%=      5-min Rain = 0
KSP1 132045Z 05011G16KT 35/17 A2999 RMK A01 T03500169  RH  036%=      5-min Rain = 0
KSP1 132050Z 07009G14KT 35/17 A2998 RMK A01 T03540173  RH  036%=      5-min Rain = 0
KSP1 132055Z 07012G18KT 35/17 A2998 RMK A01 T03490170  RH  036%=      5-min Rain = 0
KSP1 132100Z 06010KT 35/17 A2998 RMK A01 T03480170  RH  037%=      5-min Rain = 0
KSP1 132105Z 05010G20KT 35/17 A2998 RMK A01 T03530171  RH  036%=      5-min Rain = 0
KSP1 132110Z 05013G19KT 35/17 A2998 RMK A01 T03530169  RH  035%=      5-min Rain = 0
KSP1 132115Z 09010G17KT 36/17 A2998 RMK A01 T03570170  RH  035%=      5-min Rain = 0
KSP1 132120Z 07009KT 36/17 A2997 RMK A01 T03580171  RH  035%=      5-min Rain = 0
KSP1 132125Z 06010KT 35/17 A2997 RMK A01 T03540170  RH  035%=      5-min Rain = 0
KSP1 132130Z 09010G16KT 36/17 A2997 RMK A01 T03570170  RH  035%=      5-min Rain = 0
KSP1 132135Z 08008KT 35/17 A2997 RMK A01 T03480169  RH  036%=      5-min Rain = 0
KSP1 132140Z 06010G17KT 36/17 A2997 RMK A01 T03580171  RH  035%=      5-min Rain = 0
KSP1 132145Z 09010G16KT 36/17 A2997 RMK A01 T03560169  RH  035%=      5-min Rain = 0
KSP1 132150Z 10008KT 35/17 A2997 RMK A01 T03510168  RH  036%=      5-min Rain = 0
KSP1 132155Z 09008G16KT 36/17 A2997 RMK A01 T03560169  RH  035%=      5-min Rain = 0
KSP1 132200Z 06013KT 36/17 A2997 RMK A01 T03550169  RH  035%=      5-min Rain = 0
KSP1 132205Z 08011G16KT 35/17 A2997 RMK A01 T03470170  RH  037%=      5-min Rain = 0
KSP1 132210Z 08009KT 35/17 A2996 RMK A01 T03510170  RH  036%=      5-min Rain = 0
KSP1 132215Z 09009G14KT 36/17 A2996 RMK A01 T03560170  RH  035%=      5-min Rain = 0
KSP1 132220Z 07010KT 35/17 A2996 RMK A01 T03540170  RH  035%=      5-min Rain = 0
KSP1 132225Z 07007KT 36/17 A2996 RMK A01 T03550171  RH  035%=      5-min Rain = 0
KSP1 132230Z 07011G18KT 35/17 A2996 RMK A01 T03540170  RH  035%=      5-min Rain = 0
KSP1 132235Z 06011KT 35/17 A2996 RMK A01 T03490170  RH  036%=      5-min Rain = 0
KSP1 132240Z 06010KT 36/17 A2996 RMK A01 T03550170  RH  035%=      5-min Rain = 0
KSP1 132245Z 07009KT 36/17 A2996 RMK A01 T03570170  RH  035%=      5-min Rain = 0
KSP1 132250Z 06010G16KT 35/17 A2996 RMK A01 T03540169  RH  035%=      5-min Rain = 0
KSP1 132255Z 06011KT 35/17 A2996 RMK A01 T03530172  RH  036%=      5-min Rain = 0
KSP1 132300Z 05012G17KT 35/18 A2995 RMK A01 T03540175  RH  037%=      5-min Rain = 0
KSP1 132305Z 06012G18KT 35/18 A2995 RMK A01 T03510175  RH  037%=      5-min Rain = 0
KSP1 132310Z 06011G16KT 35/18 A2995 RMK A01 T03500177  RH  038%=      5-min Rain = 0
KSP1 132315Z 07010G15KT 35/17 A2996 RMK A01 T03470174  RH  038%=      5-min Rain = 0
KSP1 132320Z 07008KT 35/17 A2995 RMK A01 T03490174  RH  038%=      5-min Rain = 0
KSP1 132325Z 05008KT 35/18 A2995 RMK A01 T03490175  RH  038%=      5-min Rain = 0
KSP1 132330Z 06009KT 35/18 A2995 RMK A01 T03540176  RH  037%=      5-min Rain = 0
KSP1 132335Z 08008G15KT 35/18 A2996 RMK A01 T03500176  RH  038%=      5-min Rain = 0
KSP1 132340Z 07011G19KT 35/18 A2996 RMK A01 T03470176  RH  038%=      5-min Rain = 0
KSP1 132345Z 09009G15KT 35/18 A2996 RMK A01 T03450177  RH  039%=      5-min Rain = 0
KSP1 132350Z 09008G14KT 35/18 A2996 RMK A01 T03480177  RH  038%=      5-min Rain = 0
KSP1 132355Z 08010KT 34/18 A2996 RMK A01 T03430175  RH  039%=      5-min Rain = 0
KSP1 140000Z 08008KT 34/18 A2996 RMK A01 T03410175  RH  039%=      5-min Rain = 0
KSP1 140005Z 08009KT 34/18 A2996 RMK A01 T03410175  RH  039%=      5-min Rain = 0
KSP1 140010Z 08008KT 34/17 A2996 RMK A01 T03400174  RH  039%=      5-min Rain = 0
KSP1 140015Z 07008KT 34/17 A2996 RMK A01 T03410174  RH  039%=      5-min Rain = 0
KSP1 140020Z 06009KT 34/18 A2996 RMK A01 T03400175  RH  039%=      5-min Rain = 0
KSP1 140025Z 06008KT 34/18 A2997 RMK A01 T03400176  RH  040%=      5-min Rain = 0
KSP1 140030Z 07010KT 34/18 A2997 RMK A01 T03390175  RH  040%=      5-min Rain = 0
KSP1 140035Z 06009KT 34/18 A2997 RMK A01 T03380175  RH  040%=      5-min Rain = 0
KSP1 140040Z 06008KT 34/18 A2997 RMK A01 T03370175  RH  040%=      5-min Rain = 0
KSP1 140045Z 07007KT 34/18 A2997 RMK A01 T03370176  RH  040%=      5-min Rain = 0
KSP1 140050Z 08008KT 34/18 A2997 RMK A01 T03360176  RH  041%=      5-min Rain = 0
KSP1 140055Z 09009KT 33/18 A2997 RMK A01 T03340177  RH  041%=      5-min Rain = 0
KSP1 140100Z 09008KT 33/18 A2998 RMK A01 T03330177  RH  042%=      5-min Rain = 0
KSP1 140105Z 09008KT 33/18 A2998 RMK A01 T03310177  RH  042%=      5-min Rain = 0
KSP1 140110Z 10008KT 33/18 A2998 RMK A01 T03300177  RH  043%=      5-min Rain = 0
KSP1 140115Z 09008KT 33/18 A2998 RMK A01 T03280178  RH  043%=      5-min Rain = 0
KSP1 140120Z 09007KT 33/18 A2998 RMK A01 T03270178  RH  043%=      5-min Rain = 0
KSP1 140125Z 09007KT 33/18 A2998 RMK A01 T03260178  RH  044%=      5-min Rain = 0
KSP1 140130Z 08006KT 32/18 A2998 RMK A01 T03240178  RH  044%=      5-min Rain = 0
KSP1 140135Z 07007KT 32/18 A2998 RMK A01 T03230178  RH  044%=      5-min Rain = 0
KSP1 140140Z 07005KT 32/18 A2998 RMK A01 T03210178  RH  045%=      5-min Rain = 0
KSP1 140145Z 07006KT 32/18 A2999 RMK A01 T03180178  RH  045%=      5-min Rain = 0
KSP1 140150Z 07006KT 32/18 A2999 RMK A01 T03170178  RH  046%=      5-min Rain = 0
KSP1 140155Z 06007KT 32/18 A2999 RMK A01 T03150178  RH  047%=      5-min Rain = 0
KSP1 140200Z 06007KT 31/18 A30 RMK A01 T03130178  RH  047%=      5-min Rain = 0
KSP1 140205Z 06009KT 31/18 A30 RMK A01 T03120178  RH  047%=      5-min Rain = 0
KSP1 140210Z 06008G13KT 31/18 A30 RMK A01 T03110178  RH  047%=      5-min Rain = 0
KSP1 140215Z 07009KT 31/18 A30 RMK A01 T03100178  RH  048%=      5-min Rain = 0
KSP1 140220Z 07008KT 31/18 A3001 RMK A01 T03090177  RH  048%=      5-min Rain = 0
KSP1 140225Z 06008G13KT 31/18 A3001 RMK A01 T03080177  RH  048%=      5-min Rain = 0
KSP1 140230Z 06009KT 31/18 A3002 RMK A01 T03080177  RH  048%=      5-min Rain = 0
KSP1 140235Z 06007G13KT 31/18 A3002 RMK A01 T03070177  RH  048%=      5-min Rain = 0
KSP1 140240Z 06008KT 31/18 A3003 RMK A01 T03060177  RH  049%=      5-min Rain = 0
KSP1 140245Z 06007KT 31/18 A3003 RMK A01 T03050177  RH  049%=      5-min Rain = 0
KSP1 140250Z 07008KT 30/18 A3003 RMK A01 T03040177  RH  049%=      5-min Rain = 0
KSP1 140255Z 07008KT 30/18 A3003 RMK A01 T03030178  RH  050%=      5-min Rain = 0
KSP1 140300Z 06008KT 30/18 A3003 RMK A01 T03010178  RH  050%=      5-min Rain = 0
KSP1 140305Z 06008KT 30/18 A3003 RMK A01 T03000178  RH  050%=      5-min Rain = 0
KSP1 140310Z 06007KT 30/18 A3003 RMK A01 T03000178  RH  051%=      5-min Rain = 0
KSP1 140315Z 06008KT 30/18 A3003 RMK A01 T02980178  RH  051%=      5-min Rain = 0
KSP1 140320Z 06008KT 30/18 A3003 RMK A01 T02980178  RH  051%=      5-min Rain = 0
KSP1 140325Z 06008KT 30/18 A3004 RMK A01 T02970178  RH  052%=      5-min Rain = 0
KSP1 140330Z 07007KT 30/18 A3004 RMK A01 T02960178  RH  052%=      5-min Rain = 0
KSP1 140335Z 07007KT 30/18 A3004 RMK A01 T02950178  RH  052%=      5-min Rain = 0
KSP1 140340Z 06008KT 29/18 A3004 RMK A01 T02940178  RH  052%=      5-min Rain = 0
KSP1 140345Z 06007KT 29/18 A3005 RMK A01 T02930178  RH  053%=      5-min Rain = 0
KSP1 140350Z 07007KT 29/18 A3005 RMK A01 T02920178  RH  053%=      5-min Rain = 0
KSP1 140355Z 07006KT 29/18 A3005 RMK A01 T02910178  RH  053%=      5-min Rain = 0
KSP1 140400Z 07007KT 29/18 A3005 RMK A01 T02900178  RH  054%=      5-min Rain = 0
KSP1 140405Z 07007KT 29/18 A3005 RMK A01 T02900178  RH  054%=      5-min Rain = 0
KSP1 140410Z 07007KT 29/18 A3005 RMK A01 T02890178  RH  054%=      5-min Rain = 0
KSP1 140415Z 07006KT 29/18 A3006 RMK A01 T02880178  RH  054%=      5-min Rain = 0
KSP1 140420Z 07006KT 29/18 A3006 RMK A01 T02870178  RH  055%=      5-min Rain = 0
KSP1 140425Z 06007KT 29/18 A3006 RMK A01 T02860179  RH  055%=      5-min Rain = 0
KSP1 140430Z 06007KT 28/18 A3006 RMK A01 T02840179  RH  056%=      5-min Rain = 0
KSP1 140435Z 06007KT 28/18 A3006 RMK A01 T02840179  RH  056%=      5-min Rain = 0
KSP1 140440Z 06007KT 28/18 A3006 RMK A01 T02830180  RH  056%=      5-min Rain = 0
KSP1 140445Z 07007KT 28/18 A3006 RMK A01 T02840180  RH  056%=      5-min Rain = 0
KSP1 140450Z 07007KT 28/18 A3006 RMK A01 T02830181  RH  057%=      5-min Rain = 0
KSP1 140455Z 06007G12KT 28/18 A3006 RMK A01 T02830182  RH  057%=      5-min Rain = 0

Page generated in 0.0145 seconds.